createdAt,value
2023-03-05T00:00:56.683Z,1.05
2023-03-05T00:01:56.625Z,1.06
2023-03-05T00:02:56.673Z,1.06
2023-03-05T00:03:56.582Z,1.06
2023-03-05T00:04:56.460Z,1.04
2023-03-05T00:05:56.401Z,1.04
2023-03-05T00:06:56.358Z,1.03
2023-03-05T00:07:56.285Z,1.04
2023-03-05T00:08:56.236Z,1.03
2023-03-05T00:09:56.191Z,1.04
2023-03-05T00:10:56.132Z,1.03
2023-03-05T00:11:56.069Z,1.01
2023-03-05T00:12:56.026Z,1.03
2023-03-05T00:13:55.973Z,1.04
2023-03-05T00:14:55.914Z,1.04
2023-03-05T00:15:55.891Z,1.04
2023-03-05T00:16:55.779Z,1.03
2023-03-05T00:17:55.726Z,1.03
2023-03-05T00:18:55.683Z,1.04
2023-03-05T00:19:55.620Z,1.05
2023-03-05T00:20:55.558Z,1.05
2023-03-05T00:21:55.492Z,1.05
2023-03-05T00:22:55.455Z,1.04
2023-03-05T00:23:55.392Z,1.04
2023-03-05T01:35:51.577Z,1.06
2023-03-05T01:36:51.528Z,1.06
2023-03-05T01:37:51.438Z,1.06
2023-03-05T01:38:51.408Z,1.06
2023-03-05T01:39:51.331Z,1.06
2023-03-05T01:40:51.303Z,1.07
2023-03-05T01:41:51.237Z,1.06
2023-03-05T01:42:51.172Z,1.07
2023-03-05T01:43:51.113Z,1.06
2023-03-05T01:44:51.066Z,1.06
2023-03-05T01:45:51.035Z,1.08
2023-03-05T01:46:50.959Z,1.06
2023-03-05T01:47:50.909Z,1.05
2023-03-05T01:48:50.841Z,1.05
2023-03-05T01:49:50.791Z,1.05
2023-03-05T01:50:50.745Z,1.06
2023-03-05T01:51:50.703Z,1.06
2023-03-05T01:52:50.646Z,1.04
2023-03-05T01:53:50.602Z,1.03
2023-03-05T01:54:50.536Z,1.03
2023-03-05T01:55:50.480Z,1.02
2023-03-05T01:56:50.445Z,1.05
2023-03-05T01:57:50.378Z,1.03
2023-03-05T01:58:50.340Z,1.04
2023-03-05T01:59:50.274Z,1.02
2023-03-05T02:00:50.262Z,1.02
2023-03-05T02:01:50.141Z,1.03
2023-03-05T02:02:50.087Z,1.03
2023-03-05T02:03:50.116Z,1.03
2023-03-05T02:04:49.973Z,1.03
2023-03-05T02:05:49.903Z,1.02
2023-03-05T02:06:49.932Z,1.02
2023-03-05T02:07:49.794Z,1.02
2023-03-05T02:08:49.748Z,1.02
2023-03-05T02:09:49.677Z,1.03
2023-03-05T02:10:49.612Z,1.01
2023-03-05T02:11:49.579Z,1.03
2023-03-05T02:12:49.512Z,1.01
2023-03-05T02:13:49.462Z,1.02
2023-03-05T02:14:49.428Z,1.02
2023-03-05T02:15:49.367Z,1.02
2023-03-05T02:16:49.396Z,1.03
2023-03-05T02:17:49.250Z,1.02
2023-03-05T02:18:49.225Z,1.01
2023-03-05T02:19:49.221Z,1.00
2023-03-05T02:20:49.126Z,1.00
2023-03-05T02:21:49.058Z,1.01
2023-03-05T02:22:49.008Z,0.99
2023-03-05T02:23:48.964Z,0.97
2023-03-05T02:24:48.886Z,0.96
2023-03-05T02:25:48.833Z,0.96
2023-03-05T02:26:48.780Z,0.95
2023-03-05T02:27:48.731Z,0.96
2023-03-05T02:28:48.677Z,0.94
2023-03-05T02:29:48.639Z,0.90
2023-03-05T02:30:48.579Z,0.92
2023-03-05T02:31:48.586Z,0.92
2023-03-05T02:32:48.515Z,0.92
2023-03-05T02:33:48.450Z,0.92
2023-03-05T02:34:48.367Z,0.91
2023-03-05T02:35:48.375Z,0.89
2023-03-05T02:36:48.271Z,0.88
2023-03-05T02:37:48.234Z,0.87
2023-03-05T02:38:48.161Z,0.87
2023-03-05T02:39:48.102Z,0.87
2023-03-05T02:40:48.052Z,0.88
2023-03-05T02:41:48.016Z,0.88
2023-03-05T02:42:47.948Z,0.87
2023-03-05T02:43:47.897Z,0.87
2023-03-05T02:44:47.841Z,0.87
2023-03-05T02:45:47.842Z,0.88
2023-03-05T02:46:47.736Z,0.88
2023-03-05T02:47:47.685Z,0.88
2023-03-05T02:48:47.640Z,0.85
2023-03-05T02:49:47.584Z,0.85
2023-03-05T02:50:47.539Z,0.86
2023-03-05T02:51:47.489Z,0.88
2023-03-05T02:52:47.428Z,0.87
2023-03-05T02:53:47.380Z,0.86
2023-03-05T02:54:47.319Z,0.84
2023-03-05T02:55:47.261Z,0.85
2023-03-05T02:56:47.200Z,0.84
2023-03-05T02:57:47.158Z,0.86
2023-03-05T02:58:47.077Z,0.86
2023-03-05T02:59:47.054Z,0.84
2023-03-05T03:00:46.986Z,0.84
2023-03-05T03:01:46.903Z,0.84
2023-03-05T03:02:46.897Z,0.84
2023-03-05T03:03:46.783Z,0.84
2023-03-05T03:04:46.734Z,0.84
2023-03-05T03:05:46.670Z,0.83
2023-03-05T03:06:46.603Z,0.83
2023-03-05T03:07:46.555Z,0.82
2023-03-05T03:08:46.512Z,0.82
2023-03-05T03:09:46.443Z,0.84
2023-03-05T03:10:46.369Z,0.84
2023-03-05T03:11:46.315Z,0.83
2023-03-05T03:12:46.258Z,0.83
2023-03-05T03:13:46.204Z,0.83
2023-03-05T03:14:46.148Z,0.83
2023-03-05T03:15:46.090Z,0.84
2023-03-05T03:16:46.056Z,0.85
2023-03-05T03:17:46.052Z,0.85
2023-03-05T03:18:45.928Z,0.84
2023-03-05T03:19:45.875Z,0.83
2023-03-05T03:20:45.825Z,0.85
2023-03-05T03:21:45.768Z,0.86
2023-03-05T03:22:45.728Z,0.86
2023-03-05T03:23:45.651Z,0.85
2023-03-05T03:24:45.594Z,0.82
2023-03-05T03:25:45.532Z,0.81
2023-03-05T03:26:45.465Z,0.83
2023-03-05T03:27:45.413Z,0.83
2023-03-05T03:28:45.357Z,0.83
2023-03-05T04:42:41.132Z,0.70
2023-03-05T04:43:41.074Z,0.68
2023-03-05T04:44:41.022Z,0.67
2023-03-05T04:45:40.967Z,0.68
2023-03-05T04:46:40.920Z,0.69
2023-03-05T04:47:40.852Z,0.70
2023-03-05T04:48:40.850Z,0.71
2023-03-05T04:49:40.760Z,0.71
2023-03-05T04:50:40.689Z,0.69
2023-03-05T04:51:40.671Z,0.69
2023-03-05T04:52:40.611Z,0.69
2023-03-05T04:53:40.572Z,0.70
2023-03-05T04:54:40.478Z,0.72
2023-03-05T04:55:40.421Z,0.70
2023-03-05T04:56:40.371Z,0.71
2023-03-05T04:57:40.325Z,0.71
2023-03-05T04:58:40.282Z,0.72
2023-03-05T04:59:40.225Z,0.72
2023-03-05T05:00:40.169Z,0.72
2023-03-05T05:01:40.178Z,0.72
2023-03-05T05:02:40.097Z,0.72
2023-03-05T05:03:40.021Z,0.71
2023-03-05T05:04:39.974Z,0.70
2023-03-05T05:05:39.917Z,0.70
2023-03-05T05:06:39.875Z,0.71
2023-03-05T05:07:39.810Z,0.71
2023-03-05T05:08:39.765Z,0.71
2023-03-05T05:09:39.714Z,0.69
2023-03-05T05:10:39.683Z,0.69
2023-03-05T05:11:39.626Z,0.71
2023-03-05T05:12:39.574Z,0.70
2023-03-05T05:13:39.523Z,0.71
2023-03-05T05:14:39.500Z,0.69
2023-03-05T05:15:39.442Z,0.69
2023-03-05T05:16:39.375Z,0.69
2023-03-05T05:17:39.312Z,0.70
2023-03-05T05:18:39.265Z,0.72
2023-03-05T05:19:39.241Z,0.71
2023-03-05T05:20:39.164Z,0.71
2023-03-05T05:21:39.107Z,0.70
2023-03-05T05:22:39.072Z,0.69
2023-03-05T05:23:39.008Z,0.71
2023-03-05T05:24:38.955Z,0.71
2023-03-05T05:25:38.912Z,0.71
2023-03-05T05:26:38.835Z,0.70
2023-03-05T05:27:38.788Z,0.71
2023-03-05T05:28:38.871Z,0.67
2023-03-05T05:29:38.669Z,0.69
2023-03-05T05:30:38.655Z,0.71
2023-03-05T05:31:38.590Z,0.70
2023-03-05T05:32:38.627Z,0.72
2023-03-05T05:33:38.463Z,0.71
2023-03-05T05:34:38.400Z,0.69
2023-03-05T05:35:38.454Z,0.69
2023-03-05T05:36:38.346Z,0.71
2023-03-05T05:37:38.254Z,0.71
2023-03-05T05:38:38.195Z,0.71
2023-03-05T05:39:38.134Z,0.70
2023-03-05T05:40:38.076Z,0.71
2023-03-05T05:41:38.022Z,0.70
2023-03-05T05:42:37.982Z,0.72
2023-03-05T05:43:37.902Z,0.70
2023-03-05T05:44:37.869Z,0.71
2023-03-05T05:45:39.581Z,0.67
2023-03-05T05:46:37.766Z,0.67
2023-03-05T05:47:37.680Z,0.69
2023-03-05T05:48:37.624Z,0.70
2023-03-05T05:49:37.558Z,0.71
2023-03-05T05:50:37.502Z,0.71
2023-03-05T05:51:37.490Z,0.71
2023-03-05T05:52:37.421Z,0.70
2023-03-05T05:53:37.355Z,0.71
2023-03-05T05:54:37.287Z,0.71
2023-03-05T05:55:37.235Z,0.72
2023-03-05T05:56:37.182Z,0.71
2023-03-05T05:57:37.130Z,0.70
2023-03-05T05:58:37.093Z,0.70
2023-03-05T05:59:37.057Z,0.69
2023-03-05T06:00:37.000Z,0.71
2023-03-05T06:01:37.015Z,0.71
2023-03-05T06:02:36.916Z,0.70
2023-03-05T06:03:36.837Z,0.70
2023-03-05T06:04:36.779Z,0.70
2023-03-05T06:05:36.734Z,0.69
2023-03-05T06:06:36.675Z,0.71
2023-03-05T06:07:36.664Z,0.71
2023-03-05T06:08:36.576Z,0.71
2023-03-05T06:09:36.526Z,0.70
2023-03-05T06:10:36.468Z,0.70
2023-03-05T06:11:36.426Z,0.70
2023-03-05T06:12:36.366Z,0.70
2023-03-05T06:13:36.307Z,0.71
2023-03-05T06:14:36.314Z,0.71
2023-03-05T06:15:36.216Z,0.72
2023-03-05T06:16:36.334Z,0.72
2023-03-05T06:17:36.109Z,0.72
2023-03-05T06:18:36.035Z,0.73
2023-03-05T06:19:35.986Z,0.74
2023-03-05T06:20:35.919Z,0.74
2023-03-05T06:21:35.880Z,0.74
2023-03-05T06:22:35.811Z,0.74
2023-03-05T06:23:35.780Z,0.73
2023-03-05T06:24:35.713Z,0.75
2023-03-05T06:25:35.657Z,0.74
2023-03-05T06:26:35.646Z,0.74
2023-03-05T06:27:35.565Z,0.74
2023-03-05T06:28:35.512Z,0.73
2023-03-05T06:29:35.469Z,0.74
2023-03-05T06:30:35.465Z,0.76
2023-03-05T06:31:37.353Z,0.76
2023-03-05T06:32:35.389Z,0.76
2023-03-05T06:33:35.288Z,0.74
2023-03-05T06:34:35.230Z,0.74
2023-03-05T06:35:35.197Z,0.74
2023-03-05T06:36:35.125Z,0.75
2023-03-05T06:37:35.061Z,0.76
2023-03-05T06:38:34.998Z,0.76
2023-03-05T06:39:34.950Z,0.75
2023-03-05T06:40:34.895Z,0.74
2023-03-05T06:41:34.923Z,0.76
2023-03-05T06:42:34.801Z,0.75
2023-03-05T06:43:34.770Z,0.76
2023-03-05T06:44:34.685Z,0.75
2023-03-05T06:45:34.703Z,0.74
2023-03-05T06:46:34.623Z,0.74
2023-03-05T06:47:34.547Z,0.75
2023-03-05T06:48:34.503Z,0.77
2023-03-05T06:49:34.437Z,0.77
2023-03-05T06:50:34.392Z,0.78
2023-03-05T06:51:34.369Z,0.76
2023-03-05T06:52:34.295Z,0.76
2023-03-05T06:53:34.257Z,0.76
2023-03-05T06:54:34.209Z,0.77
2023-03-05T06:55:34.156Z,0.77
2023-03-05T06:56:34.108Z,0.77
2023-03-05T06:57:34.079Z,0.78
2023-03-05T06:58:34.006Z,0.76
2023-03-05T06:59:33.949Z,0.77
2023-03-05T07:00:33.890Z,0.77
2023-03-05T07:01:33.903Z,0.77
2023-03-05T07:02:33.860Z,0.77
2023-03-05T07:03:33.746Z,0.74
2023-03-05T07:04:33.692Z,0.74
2023-03-05T07:05:34.296Z,0.74
2023-03-05T07:06:33.597Z,0.76
2023-03-05T07:07:33.531Z,0.76
2023-03-05T07:08:33.484Z,0.76
2023-03-05T07:09:33.437Z,0.76
2023-03-05T07:10:33.388Z,0.75
2023-03-05T07:11:33.328Z,0.75
2023-03-05T07:12:33.279Z,0.75
2023-03-05T07:13:33.265Z,0.76
2023-03-05T07:14:33.161Z,0.76
2023-03-05T07:15:33.145Z,0.72
2023-03-05T07:16:33.076Z,0.72
2023-03-05T07:17:33.008Z,0.73
2023-03-05T07:18:32.964Z,0.74
2023-03-05T07:19:32.918Z,0.75
2023-03-05T07:20:32.878Z,0.73
2023-03-05T07:21:32.823Z,0.75
2023-03-05T07:22:32.846Z,0.74
2023-03-05T07:23:32.720Z,0.75
2023-03-05T07:24:32.676Z,0.74
2023-03-05T07:25:32.637Z,0.76
2023-03-05T07:26:32.574Z,0.76
2023-03-05T07:27:32.535Z,0.74
2023-03-05T07:28:32.475Z,0.74
2023-03-05T07:29:32.415Z,0.74
2023-03-05T07:30:32.371Z,0.75
2023-03-05T07:31:32.463Z,0.76
2023-03-05T07:32:32.321Z,0.76
2023-03-05T07:33:32.224Z,0.74
2023-03-05T07:34:32.142Z,0.73
2023-03-05T07:35:32.164Z,0.74
2023-03-05T07:36:32.051Z,0.75
2023-03-05T07:37:31.992Z,0.76
2023-03-05T07:38:31.923Z,0.76
2023-03-05T07:39:31.874Z,0.75
2023-03-05T07:40:31.817Z,0.74
2023-03-05T07:41:31.760Z,0.72
2023-03-05T07:42:31.820Z,0.74
2023-03-05T07:43:31.658Z,0.76
2023-03-05T07:44:31.602Z,0.75
2023-03-05T07:45:31.546Z,0.75
2023-03-05T07:46:31.564Z,0.71
2023-03-05T07:47:31.457Z,0.74
2023-03-05T07:48:31.407Z,0.74
2023-03-05T07:49:31.367Z,0.75
2023-03-05T07:50:31.322Z,0.74
2023-03-05T07:51:31.272Z,0.73
2023-03-05T07:52:31.246Z,0.74
2023-03-05T07:53:31.190Z,0.74
2023-03-05T07:54:31.137Z,0.75
2023-03-05T07:55:31.082Z,0.75
2023-03-05T07:56:31.034Z,0.74
2023-03-05T07:57:31.000Z,0.72
2023-03-05T07:58:30.938Z,0.74
2023-03-05T07:59:30.871Z,0.74
2023-03-05T08:00:30.841Z,0.73
2023-03-05T08:01:30.799Z,0.74
2023-03-05T08:02:30.741Z,0.73
2023-03-05T08:03:30.675Z,0.73
2023-03-05T08:04:30.612Z,0.74
2023-03-05T08:05:30.555Z,0.75
2023-03-05T08:06:30.507Z,0.75
2023-03-05T08:07:30.443Z,0.75
2023-03-05T08:08:30.394Z,0.72
2023-03-05T08:09:30.334Z,0.72
2023-03-05T08:10:30.286Z,0.73
2023-03-05T08:11:30.238Z,0.72
2023-03-05T08:12:30.189Z,0.73
2023-03-05T08:13:30.135Z,0.74
2023-03-05T08:14:30.110Z,0.73
2023-03-05T08:15:30.020Z,0.72
2023-03-05T08:16:29.977Z,0.73
2023-03-05T08:17:29.918Z,0.73
2023-03-05T08:18:29.881Z,0.73
2023-03-05T08:19:29.818Z,0.74
2023-03-05T08:20:29.818Z,0.75
2023-03-05T08:21:29.714Z,0.73
2023-03-05T08:22:29.682Z,0.75
2023-03-05T08:23:29.609Z,0.74
2023-03-05T08:24:29.789Z,0.74
2023-03-05T08:25:29.503Z,0.74
2023-03-05T08:26:29.434Z,0.73
2023-03-05T08:27:29.376Z,0.73
2023-03-05T08:28:29.316Z,0.74
2023-03-05T08:29:29.259Z,0.74
2023-03-05T08:30:29.214Z,0.75
2023-03-05T08:31:29.173Z,0.75
2023-03-05T08:32:29.158Z,0.74
2023-03-05T08:33:31.271Z,0.74
2023-03-05T08:34:29.094Z,0.75
2023-03-05T08:35:29.076Z,0.76
2023-03-05T08:36:28.999Z,0.76
2023-03-05T08:37:28.925Z,0.76
2023-03-05T08:38:28.884Z,0.75
2023-03-05T08:39:28.822Z,0.76
2023-03-05T08:40:28.758Z,0.75
2023-03-05T08:41:28.718Z,0.75
2023-03-05T08:42:28.659Z,0.76
2023-03-05T08:43:28.595Z,0.75
2023-03-05T08:44:28.538Z,0.73
2023-03-05T08:45:28.537Z,0.74
2023-03-05T08:46:28.454Z,0.75
2023-03-05T08:47:28.356Z,0.76
2023-03-05T08:48:28.318Z,0.76
2023-03-05T08:49:28.258Z,0.74
2023-03-05T08:50:28.192Z,0.73
2023-03-05T08:51:28.131Z,0.75
2023-03-05T08:52:28.095Z,0.75
2023-03-05T08:53:28.030Z,0.74
2023-03-05T08:54:27.978Z,0.75
2023-03-05T08:55:27.928Z,0.74
2023-03-05T08:56:27.888Z,0.75
2023-03-05T08:57:27.829Z,0.75
2023-03-05T08:58:27.777Z,0.75
2023-03-05T08:59:27.711Z,0.75
2023-03-05T09:00:27.695Z,0.75
2023-03-05T09:01:27.653Z,0.75
2023-03-05T09:02:27.636Z,0.75
2023-03-05T09:03:27.527Z,0.76
2023-03-05T09:04:27.505Z,0.77
2023-03-05T09:05:27.405Z,0.76
2023-03-05T09:06:27.360Z,0.73
2023-03-05T09:07:27.306Z,0.75
2023-03-05T09:08:27.247Z,0.74
2023-03-05T09:09:27.213Z,0.77
2023-03-05T09:10:27.193Z,0.77
2023-03-05T09:11:27.094Z,0.76
2023-03-05T09:12:27.058Z,0.75
2023-03-05T09:13:26.999Z,0.76
2023-03-05T09:14:26.942Z,0.77
2023-03-05T09:15:26.886Z,0.77
2023-03-05T09:16:26.916Z,0.76
2023-03-05T09:17:26.774Z,0.75
2023-03-05T09:18:26.710Z,0.74
2023-03-05T09:19:26.672Z,0.75
2023-03-05T09:20:26.616Z,0.75
2023-03-05T09:21:26.540Z,0.74
2023-03-05T09:22:26.499Z,0.73
2023-03-05T09:23:26.436Z,0.74
2023-03-05T09:24:26.378Z,0.74
2023-03-05T09:25:26.330Z,0.74
2023-03-05T09:26:26.299Z,0.74
2023-03-05T09:27:26.213Z,0.73
2023-03-05T09:28:26.173Z,0.73
2023-03-05T09:29:26.133Z,0.73
2023-03-05T09:30:26.074Z,0.74
2023-03-05T09:31:26.179Z,0.74
2023-03-05T09:32:25.991Z,0.73
2023-03-05T09:33:25.920Z,0.74
2023-03-05T09:34:25.877Z,0.74
2023-03-05T09:35:25.855Z,0.74
2023-03-05T09:36:25.794Z,0.74
2023-03-05T09:37:25.728Z,0.74
2023-03-05T09:38:25.673Z,0.75
2023-03-05T09:39:25.634Z,0.75
2023-03-05T09:40:25.568Z,0.76
2023-03-05T09:41:25.515Z,0.77
2023-03-05T09:42:25.479Z,0.77
2023-03-05T09:43:25.416Z,0.77
2023-03-05T09:44:25.361Z,0.79
2023-03-05T09:56:24.715Z,0.82
2023-03-05T10:15:23.644Z,0.81
2023-03-05T10:16:23.569Z,0.79
2023-03-05T10:17:23.486Z,0.81
2023-03-05T10:18:23.416Z,0.81
2023-03-05T10:19:23.354Z,0.79
2023-03-05T10:20:23.313Z,0.83
2023-03-05T10:21:23.222Z,0.82
2023-03-05T10:22:23.180Z,0.82
2023-03-05T10:23:23.092Z,0.82
2023-03-05T10:24:23.021Z,0.82
2023-03-05T10:25:22.959Z,0.81
2023-03-05T10:26:22.915Z,0.81
2023-03-05T10:27:22.843Z,0.81
2023-03-05T10:28:22.790Z,0.78
2023-03-05T10:29:22.719Z,0.81
2023-03-05T10:30:22.667Z,0.80
2023-03-05T10:31:22.626Z,0.80
2023-03-05T10:32:22.625Z,0.78
2023-03-05T10:33:22.482Z,0.79
2023-03-05T10:34:22.421Z,0.81
2023-03-05T10:35:22.390Z,0.77
2023-03-05T10:36:22.267Z,0.78
2023-03-05T10:37:22.202Z,0.78
2023-03-05T10:38:22.128Z,0.79
2023-03-05T10:39:22.056Z,0.79
2023-03-05T10:40:21.989Z,0.79
2023-03-05T10:41:21.927Z,0.79
2023-03-05T10:42:21.867Z,0.79
2023-03-05T10:43:21.784Z,0.77
2023-03-05T10:44:21.720Z,0.77
2023-03-05T10:45:21.660Z,0.78
2023-03-05T10:46:21.598Z,0.79
2023-03-05T10:47:21.497Z,0.77
2023-03-05T10:48:21.431Z,0.76
2023-03-05T10:49:21.391Z,0.77
2023-03-05T10:50:21.305Z,0.77
2023-03-05T10:51:21.227Z,0.77
2023-03-05T10:52:21.165Z,0.77
2023-03-05T10:53:21.132Z,0.75
2023-03-05T10:54:21.072Z,0.78
2023-03-05T10:55:21.001Z,0.76
2023-03-05T10:56:20.930Z,0.77
2023-03-05T10:57:20.859Z,0.76
2023-03-05T10:58:21.760Z,0.76
2023-03-05T10:59:20.725Z,0.75
2023-03-05T11:00:20.667Z,0.75
2023-03-05T11:01:20.653Z,0.75
2023-03-05T11:02:20.581Z,0.76
2023-03-05T11:03:20.487Z,0.76
2023-03-05T11:04:20.421Z,0.75
2023-03-05T11:05:20.357Z,0.77
2023-03-05T11:06:20.288Z,0.76
2023-03-05T11:07:20.226Z,0.76
2023-03-05T11:08:20.167Z,0.76
2023-03-05T11:09:20.108Z,0.78
2023-03-05T11:10:20.055Z,0.77
2023-03-05T11:11:19.953Z,0.78
2023-03-05T11:12:19.890Z,0.78
2023-03-05T11:13:19.799Z,0.75
2023-03-05T11:14:19.741Z,0.77
2023-03-05T11:15:19.689Z,0.76
2023-03-05T11:16:21.082Z,0.77
2023-03-05T11:17:19.541Z,0.76
2023-03-05T11:18:19.512Z,0.76
2023-03-05T11:19:19.464Z,0.75
2023-03-05T11:20:19.369Z,0.75
2023-03-05T11:22:19.239Z,0.76
2023-03-05T11:23:19.212Z,0.75
2023-03-05T11:24:19.118Z,0.75
2023-03-05T11:25:19.107Z,0.74
2023-03-05T11:26:19.006Z,0.76
2023-03-05T11:27:18.927Z,0.76
2023-03-05T11:28:30.781Z,0.76
2023-03-05T11:29:19.821Z,0.76
2023-03-05T11:31:18.941Z,0.75
2023-03-05T11:32:18.672Z,0.75
2023-03-05T11:33:18.547Z,0.76
2023-03-05T11:34:18.472Z,0.74
2023-03-05T11:35:18.415Z,0.76
2023-03-05T11:36:18.353Z,0.74
2023-03-05T11:37:18.287Z,0.75
2023-03-05T11:38:18.222Z,0.75
2023-03-05T11:39:18.144Z,0.75
2023-03-05T11:40:18.132Z,0.75
2023-03-05T11:41:18.038Z,0.76
2023-03-05T11:42:17.940Z,0.75
2023-03-05T11:43:17.878Z,0.73
2023-03-05T11:44:17.811Z,0.74
2023-03-05T11:45:17.731Z,0.75
2023-03-05T11:46:17.782Z,0.75
2023-03-05T11:47:17.597Z,0.76
2023-03-05T11:48:17.524Z,0.74
2023-03-05T11:49:17.458Z,0.75
2023-03-05T11:50:17.388Z,0.75
2023-03-05T11:51:17.319Z,0.74
2023-03-05T11:52:17.246Z,0.74
2023-03-05T11:53:17.173Z,0.75
2023-03-05T11:54:17.106Z,0.76
2023-03-05T11:55:17.042Z,0.75
2023-03-05T11:56:18.739Z,0.75
2023-03-05T11:57:16.927Z,0.74
2023-03-05T11:58:16.844Z,0.75
2023-03-05T11:59:16.785Z,0.74
2023-03-05T12:00:16.782Z,0.75
2023-03-05T12:01:16.662Z,0.75
2023-03-05T12:02:19.287Z,0.74
2023-03-05T12:03:16.514Z,0.73
2023-03-05T12:04:16.446Z,0.74
2023-03-05T12:05:16.400Z,0.74
2023-03-05T12:06:16.331Z,0.75
2023-03-05T12:07:16.274Z,0.72
2023-03-05T12:08:16.192Z,0.73
2023-03-05T12:09:16.140Z,0.73
2023-03-05T12:10:16.125Z,0.71
2023-03-05T12:11:16.207Z,0.70
2023-03-05T12:12:15.946Z,0.71
2023-03-05T12:13:15.923Z,0.72
2023-03-05T12:14:15.828Z,0.72
2023-03-05T12:15:15.784Z,0.71
2023-03-05T12:16:15.806Z,0.72
2023-03-05T12:17:15.664Z,0.72
2023-03-05T12:18:15.597Z,0.69
2023-03-05T12:19:18.153Z,0.70
2023-03-05T12:20:15.692Z,0.70
2023-03-05T12:21:15.432Z,0.71
2023-03-05T12:22:15.387Z,0.71
2023-03-05T13:56:09.230Z,0.71
2023-03-05T13:57:09.173Z,0.70
2023-03-05T13:58:09.113Z,0.69
2023-03-05T13:59:09.024Z,0.69
2023-03-05T14:00:08.956Z,0.70
2023-03-05T14:01:08.899Z,0.70
2023-03-05T14:02:08.807Z,0.70
2023-03-05T14:03:08.760Z,0.69
2023-03-05T14:04:08.658Z,0.69
2023-03-05T14:05:08.665Z,0.69
2023-03-05T14:06:08.534Z,0.71
2023-03-05T14:07:08.469Z,0.75
2023-03-05T14:08:08.390Z,0.71
2023-03-05T14:09:08.350Z,0.71
2023-03-05T14:10:08.259Z,0.72
2023-03-05T14:11:08.203Z,0.73
2023-03-05T14:12:08.153Z,0.75
2023-03-05T14:13:08.072Z,0.75
2023-03-05T14:14:08.042Z,0.74
2023-03-05T14:15:07.976Z,0.74
2023-03-05T14:16:07.868Z,0.75
2023-03-05T14:17:07.845Z,0.75
2023-03-05T14:18:07.740Z,0.77
2023-03-05T14:19:07.671Z,0.74
2023-03-05T14:20:07.596Z,0.75
2023-03-05T14:21:07.534Z,0.77
2023-03-05T14:22:07.453Z,0.74
2023-03-05T14:23:09.528Z,0.74
2023-03-05T14:24:07.324Z,0.74
2023-03-05T14:25:07.293Z,0.73
2023-03-05T14:26:07.179Z,0.74
2023-03-05T14:27:07.113Z,0.73
2023-03-05T14:28:07.044Z,0.74
2023-03-05T14:29:07.006Z,0.72
2023-03-05T14:30:06.928Z,0.72
2023-03-05T14:31:06.897Z,0.71
2023-03-05T14:32:06.844Z,0.72
2023-03-05T14:33:06.726Z,0.73
2023-03-05T14:34:06.680Z,0.74
2023-03-05T14:35:06.611Z,0.72
2023-03-05T14:36:06.542Z,0.74
2023-03-05T14:37:06.478Z,0.74
2023-03-05T14:38:06.398Z,0.72
2023-03-05T14:39:06.346Z,0.73
2023-03-05T14:40:06.279Z,0.73
2023-03-05T14:41:06.208Z,0.72
2023-03-05T14:42:06.129Z,0.73
2023-03-05T14:43:06.062Z,0.74
2023-03-05T14:44:05.992Z,0.77
2023-03-05T14:45:05.921Z,0.75
2023-03-05T14:46:05.874Z,0.75
2023-03-05T14:47:05.775Z,0.75
2023-03-05T14:48:05.691Z,0.77
2023-03-05T14:49:05.680Z,0.74
2023-03-05T14:50:05.557Z,0.75
2023-03-05T14:51:05.487Z,0.77
2023-03-05T14:52:05.421Z,0.78
2023-03-05T14:53:05.347Z,0.76
2023-03-05T16:07:59.908Z,0.56
2023-03-05T16:08:59.823Z,0.55
2023-03-05T16:09:59.765Z,0.56
2023-03-05T16:10:59.680Z,0.56
2023-03-05T16:11:59.617Z,0.56
2023-03-05T16:12:59.534Z,0.54
2023-03-05T16:13:59.483Z,0.53
2023-03-05T16:14:59.423Z,0.54
2023-03-05T16:15:59.371Z,0.54
2023-03-05T16:16:59.273Z,0.54
2023-03-05T16:17:59.190Z,0.54
2023-03-05T16:18:59.103Z,0.56
2023-03-05T16:19:59.034Z,0.56
2023-03-05T16:20:58.968Z,0.54
2023-03-05T16:21:58.883Z,0.53
2023-03-05T16:22:58.822Z,0.54
2023-03-05T16:23:58.733Z,0.55
2023-03-05T16:24:58.662Z,0.53
2023-03-05T16:25:59.663Z,0.52
2023-03-05T16:26:58.560Z,0.52
2023-03-05T16:27:58.462Z,0.52
2023-03-05T16:28:58.368Z,0.52
2023-03-05T16:29:58.291Z,0.52
2023-03-05T16:30:58.230Z,0.53
2023-03-05T16:31:58.143Z,0.55
2023-03-05T16:32:58.054Z,0.53
2023-03-05T16:33:57.988Z,0.54
2023-03-05T16:34:57.902Z,0.54
2023-03-05T16:35:58.445Z,0.55
2023-03-05T16:36:57.770Z,0.53
2023-03-05T16:37:57.682Z,0.56
2023-03-05T16:38:57.612Z,0.55
2023-03-05T16:39:57.555Z,0.54
2023-03-05T16:41:07.674Z,0.55
2023-03-05T16:41:58.413Z,0.55
2023-03-05T16:42:57.336Z,0.56
2023-03-05T16:43:57.273Z,0.56
2023-03-05T16:44:57.204Z,0.55
2023-03-05T16:45:57.139Z,0.56
2023-03-05T16:46:57.118Z,0.58
2023-03-05T16:47:57.015Z,0.59
2023-03-05T16:48:56.940Z,0.61
2023-03-05T16:49:56.881Z,0.63
2023-03-05T16:50:56.810Z,0.65
2023-03-05T16:51:59.370Z,0.62
2023-03-05T16:52:56.645Z,0.62
2023-03-05T16:53:56.579Z,0.62
2023-03-05T16:54:56.514Z,0.63
2023-03-05T16:55:56.442Z,0.62
2023-03-05T16:56:56.375Z,0.63
2023-03-05T16:57:56.319Z,0.64
2023-03-05T16:58:56.243Z,0.65
2023-03-05T16:59:56.159Z,0.66
2023-03-05T17:00:56.100Z,0.67
2023-03-05T17:01:56.019Z,0.68
2023-03-05T17:02:55.949Z,0.67
2023-03-05T17:03:55.900Z,0.69
2023-03-05T17:04:55.855Z,0.70
2023-03-05T17:05:55.755Z,0.69
2023-03-05T17:06:55.686Z,0.70
2023-03-05T17:07:55.807Z,0.71
2023-03-05T17:08:55.549Z,0.69
2023-03-05T17:09:55.518Z,0.71
2023-03-05T17:10:55.409Z,0.71
2023-03-05T17:11:55.352Z,0.68
2023-03-05T18:43:48.994Z,0.88
2023-03-05T18:44:48.926Z,0.86
2023-03-05T18:45:48.903Z,0.88
2023-03-05T18:46:48.773Z,0.85
2023-03-05T18:47:48.707Z,0.86
2023-03-05T18:48:48.658Z,0.88
2023-03-05T18:49:48.591Z,0.87
2023-03-05T18:50:48.504Z,0.86
2023-03-05T18:51:48.441Z,0.85
2023-03-05T18:52:48.364Z,0.86
2023-03-05T18:53:48.317Z,0.86
2023-03-05T18:54:48.235Z,0.86
2023-03-05T18:55:49.735Z,0.85
2023-03-05T18:56:48.126Z,0.88
2023-03-05T18:57:48.089Z,0.88
2023-03-05T18:58:47.991Z,0.87
2023-03-05T18:59:47.954Z,0.89
2023-03-05T19:00:47.864Z,0.87
2023-03-05T19:01:47.803Z,0.88
2023-03-05T19:02:47.753Z,0.87
2023-03-05T19:03:47.692Z,0.87
2023-03-05T19:04:47.595Z,0.88
2023-03-05T19:05:47.546Z,0.89
2023-03-05T19:06:47.471Z,0.88
2023-03-05T19:07:47.439Z,0.88
2023-03-05T19:08:47.376Z,0.90
2023-03-05T19:09:47.299Z,0.88
2023-03-05T19:10:47.241Z,0.89
2023-03-05T19:11:47.179Z,0.89
2023-03-05T19:12:47.117Z,0.87
2023-03-05T19:13:47.093Z,0.90
2023-03-05T19:14:46.997Z,0.88
2023-03-05T19:15:46.985Z,0.88
2023-03-05T19:16:46.877Z,0.91
2023-03-05T19:17:46.811Z,0.89
2023-03-05T19:18:46.780Z,0.89
2023-03-05T19:19:46.708Z,0.88
2023-03-05T19:20:46.632Z,0.86
2023-03-05T19:21:46.567Z,0.86
2023-03-05T19:22:46.502Z,0.89
2023-03-05T19:23:46.433Z,0.86
2023-03-05T19:24:46.402Z,0.85
2023-03-05T19:25:46.279Z,0.87
2023-03-05T19:26:46.237Z,0.88
2023-03-05T19:27:46.165Z,0.86
2023-03-05T19:28:46.108Z,0.86
2023-03-05T19:29:46.040Z,0.86
2023-03-05T19:30:45.999Z,0.87
2023-03-05T19:31:45.950Z,0.88
2023-03-05T19:32:45.878Z,0.85
2023-03-05T19:33:45.811Z,0.84
2023-03-05T19:34:45.766Z,0.84
2023-03-05T19:35:45.705Z,0.84
2023-03-05T19:36:45.609Z,0.84
2023-03-05T19:37:45.558Z,0.85
2023-03-05T19:38:46.458Z,0.86
2023-03-05T19:39:45.418Z,0.86
2023-03-05T19:40:45.367Z,0.86
2023-03-05T22:15:35.783Z,0.77
2023-03-05T22:16:35.723Z,0.77
2023-03-05T22:17:35.634Z,0.76
2023-03-05T22:18:35.581Z,0.74
2023-03-05T22:19:35.512Z,0.75
2023-03-05T22:20:35.460Z,0.75
2023-03-05T22:21:35.422Z,0.76
2023-03-05T22:22:35.354Z,0.76
2023-03-05T23:35:31.262Z,0.67
2023-03-05T23:36:31.093Z,0.67
2023-03-05T23:37:31.044Z,0.67
2023-03-05T23:38:30.996Z,0.65
2023-03-05T23:39:30.909Z,0.63
2023-03-05T23:40:30.860Z,0.65
2023-03-05T23:41:30.800Z,0.65
2023-03-05T23:42:30.741Z,0.66
2023-03-05T23:43:30.689Z,0.66
2023-03-05T23:44:30.639Z,0.66
2023-03-05T23:45:30.555Z,0.65
2023-03-05T23:46:30.549Z,0.65
2023-03-05T23:47:30.443Z,0.65
2023-03-05T23:48:30.379Z,0.66
2023-03-05T23:49:30.437Z,0.65
2023-03-05T23:50:30.244Z,0.66
2023-03-05T23:51:30.177Z,0.65
2023-03-05T23:52:30.104Z,0.64
2023-03-05T23:53:30.044Z,0.64
2023-03-05T23:54:30.017Z,0.65
2023-03-05T23:55:29.916Z,0.65
2023-03-05T23:56:29.854Z,0.65
2023-03-05T23:57:29.788Z,0.64
2023-03-05T23:58:29.726Z,0.64
2023-03-05T23:59:29.675Z,0.65
